createdAt,value
2022-12-31T00:00:26.385Z,21.90
2022-12-31T00:03:29.713Z,20.42
2022-12-31T00:06:35.174Z,19.23
2022-12-31T00:09:38.831Z,20.67
2022-12-31T00:12:42.299Z,20.25
2022-12-31T00:15:45.661Z,20.77
2022-12-31T00:18:51.231Z,20.20
2022-12-31T00:21:54.830Z,20.38
2022-12-31T00:24:58.067Z,20.58
2022-12-31T00:28:04.413Z,19.33
2022-12-31T00:31:13.108Z,19.95
2022-12-31T00:34:16.456Z,18.88
2022-12-31T00:37:19.699Z,19.95
2022-12-31T00:40:23.377Z,19.63
2022-12-31T00:43:26.574Z,20.88
2022-12-31T00:46:29.864Z,19.83
2022-12-31T00:49:33.134Z,20.20
2022-12-31T00:52:36.371Z,19.45
2022-12-31T00:55:39.499Z,20.00
2022-12-31T00:58:43.349Z,19.40
2022-12-31T01:01:46.831Z,19.00
2022-12-31T01:04:50.317Z,19.92
2022-12-31T01:07:53.499Z,20.40
2022-12-31T01:11:15.419Z,20.83
2022-12-31T01:14:20.621Z,20.13
2022-12-31T01:17:23.837Z,19.80
2022-12-31T01:20:28.543Z,19.80
2022-12-31T01:23:32.033Z,18.97
2022-12-31T01:26:35.637Z,19.23
2022-12-31T01:29:38.904Z,19.70
2022-12-31T01:32:42.071Z,19.83
2022-12-31T01:35:45.343Z,20.38
2022-12-31T01:38:48.687Z,19.92
2022-12-31T01:41:51.928Z,19.98
2022-12-31T01:44:56.446Z,20.67
2022-12-31T01:48:00.763Z,19.70
2022-12-31T01:51:05.293Z,19.40
2022-12-31T01:54:10.948Z,19.17
2022-12-31T01:57:15.815Z,19.95
2022-12-31T02:00:19.819Z,19.40
2022-12-31T02:03:24.338Z,19.95
2022-12-31T02:06:35.080Z,19.15
2022-12-31T02:09:41.078Z,19.73
2022-12-31T02:12:44.397Z,20.10
2022-12-31T02:16:04.952Z,19.90
2022-12-31T02:19:36.046Z,19.75
2022-12-31T02:22:48.189Z,19.02
2022-12-31T02:26:29.504Z,20.15
2022-12-31T02:29:57.175Z,18.73
2022-12-31T02:33:16.123Z,19.80
2022-12-31T02:36:26.473Z,19.75
2022-12-31T02:39:30.145Z,19.13
2022-12-31T02:42:33.403Z,20.63
2022-12-31T02:45:42.992Z,19.70
2022-12-31T02:49:06.101Z,20.45
2022-12-31T02:52:56.129Z,21.00
2022-12-31T02:56:03.279Z,21.27
2022-12-31T02:59:35.643Z,21.13
2022-12-31T03:02:42.169Z,20.95
2022-12-31T03:05:47.637Z,21.07
2022-12-31T03:09:11.912Z,20.67
2022-12-31T03:12:34.901Z,20.08
2022-12-31T03:15:39.024Z,20.95
2022-12-31T03:19:01.198Z,21.25
2022-12-31T03:22:23.311Z,19.97
2022-12-31T03:25:36.081Z,20.70
2022-12-31T03:28:47.948Z,20.38
2022-12-31T03:31:51.355Z,21.08
2022-12-31T03:34:55.974Z,21.70
2022-12-31T03:37:59.421Z,20.48
2022-12-31T03:41:03.367Z,20.90
2022-12-31T03:44:06.576Z,21.85
2022-12-31T03:47:09.719Z,21.35
2022-12-31T03:50:14.967Z,21.45
2022-12-31T03:53:18.346Z,22.70
2022-12-31T03:56:21.572Z,22.33
2022-12-31T03:59:24.827Z,22.02
2022-12-31T04:02:29.283Z,22.20
2022-12-31T04:05:33.682Z,22.80
2022-12-31T04:08:36.907Z,23.52
2022-12-31T04:11:40.273Z,23.45
2022-12-31T04:14:43.494Z,24.47
2022-12-31T04:17:47.903Z,22.35
2022-12-31T04:20:51.266Z,22.63
2022-12-31T04:23:54.485Z,24.10
2022-12-31T04:27:02.091Z,24.42
2022-12-31T04:30:09.777Z,24.13
2022-12-31T04:33:13.299Z,23.60
2022-12-31T04:36:16.813Z,24.92
2022-12-31T04:39:20.001Z,25.25
2022-12-31T04:42:23.111Z,22.45
2022-12-31T04:45:26.299Z,22.92
2022-12-31T04:48:29.879Z,23.67
2022-12-31T04:51:33.813Z,23.63
2022-12-31T04:54:36.970Z,22.63
2022-12-31T04:57:42.215Z,24.40
2022-12-31T05:00:49.671Z,25.13
2022-12-31T05:03:52.987Z,24.52
2022-12-31T05:06:56.260Z,25.23
2022-12-31T05:09:59.729Z,24.42
2022-12-31T05:13:03.180Z,25.27
2022-12-31T05:16:08.095Z,25.20
2022-12-31T05:19:11.320Z,24.90
2022-12-31T05:22:29.769Z,25.38
2022-12-31T05:25:33.397Z,25.05
2022-12-31T05:28:36.650Z,25.65
2022-12-31T05:31:39.872Z,24.97
2022-12-31T05:34:43.622Z,23.90
2022-12-31T05:37:46.847Z,24.13
2022-12-31T05:40:50.370Z,24.27
2022-12-31T05:43:53.525Z,25.88
2022-12-31T05:46:56.708Z,24.67
2022-12-31T05:50:00.040Z,24.85
2022-12-31T05:53:03.514Z,23.95
2022-12-31T05:56:06.904Z,23.40
2022-12-31T05:59:10.329Z,24.35
2022-12-31T06:02:13.588Z,24.00
2022-12-31T06:05:20.988Z,23.85
2022-12-31T06:08:27.515Z,24.27
2022-12-31T06:11:35.776Z,24.33
2022-12-31T06:14:45.263Z,23.87
2022-12-31T06:17:48.858Z,24.33
2022-12-31T06:20:52.042Z,22.88
2022-12-31T06:23:55.354Z,23.02
2022-12-31T06:26:58.606Z,23.03
2022-12-31T06:30:01.861Z,23.27
2022-12-31T06:33:05.962Z,23.15
2022-12-31T06:36:12.615Z,22.23
2022-12-31T06:39:15.945Z,22.00
2022-12-31T06:42:19.176Z,21.67
2022-12-31T06:45:22.375Z,21.30
2022-12-31T06:48:25.700Z,19.10
2022-12-31T06:51:28.996Z,19.30
2022-12-31T06:54:32.446Z,18.83
2022-12-31T06:57:36.520Z,19.75
2022-12-31T07:00:44.849Z,19.05
2022-12-31T07:04:10.248Z,18.92
2022-12-31T07:07:28.318Z,19.53
2022-12-31T07:10:31.494Z,18.65
2022-12-31T07:14:03.776Z,20.05
2022-12-31T07:17:42.789Z,18.75
2022-12-31T07:20:46.259Z,18.60
2022-12-31T07:23:49.978Z,18.50
2022-12-31T07:27:25.281Z,17.33
2022-12-31T07:30:37.854Z,17.40
2022-12-31T07:33:46.342Z,17.80
2022-12-31T07:37:02.374Z,16.58
2022-12-31T07:40:20.681Z,15.83
2022-12-31T07:43:33.055Z,16.05
2022-12-31T07:46:39.081Z,17.30
2022-12-31T07:49:44.106Z,15.65
2022-12-31T07:52:47.801Z,15.93
2022-12-31T07:55:56.455Z,15.00
2022-12-31T07:59:23.900Z,12.73
2022-12-31T08:02:57.084Z,12.98
2022-12-31T08:06:07.086Z,9.40
2022-12-31T08:09:25.616Z,10.52
2022-12-31T08:12:34.180Z,9.73
2022-12-31T08:15:39.645Z,9.25
2022-12-31T08:18:43.099Z,9.55
2022-12-31T08:22:05.177Z,8.98
2022-12-31T08:25:22.927Z,8.98
2022-12-31T08:28:29.216Z,16.97
2022-12-31T08:31:53.616Z,9.82
2022-12-31T08:35:07.022Z,9.35
2022-12-31T08:38:21.308Z,9.05
2022-12-31T08:41:39.037Z,9.00
2022-12-31T08:44:59.247Z,8.27
2022-12-31T08:48:26.809Z,8.10
2022-12-31T08:51:30.283Z,8.43
2022-12-31T08:54:33.719Z,10.15
2022-12-31T08:58:08.444Z,8.68
2022-12-31T09:01:16.983Z,9.00
2022-12-31T09:04:51.041Z,9.13
2022-12-31T09:08:21.588Z,9.35
2022-12-31T09:11:52.113Z,9.65
2022-12-31T09:15:04.766Z,9.88
2022-12-31T09:18:11.681Z,8.73
2022-12-31T09:21:16.566Z,8.43
2022-12-31T09:24:19.995Z,8.13
2022-12-31T09:27:32.193Z,7.57
2022-12-31T09:30:50.512Z,8.40
2022-12-31T09:34:08.118Z,7.43
2022-12-31T09:37:36.482Z,7.55
2022-12-31T09:41:07.018Z,7.43
2022-12-31T09:44:47.753Z,6.57
2022-12-31T09:48:33.497Z,7.15
2022-12-31T09:51:54.132Z,7.30
2022-12-31T09:55:23.010Z,6.45
2022-12-31T09:58:45.377Z,7.20
2022-12-31T10:02:15.375Z,7.40
2022-12-31T10:05:59.851Z,7.07
2022-12-31T10:09:30.469Z,10.87
2022-12-31T10:13:21.127Z,7.10
2022-12-31T10:16:39.149Z,6.82
2022-12-31T10:20:14.967Z,7.47
2022-12-31T10:23:24.739Z,6.70
2022-12-31T10:26:39.690Z,6.50
2022-12-31T10:29:57.942Z,7.03
2022-12-31T10:33:21.675Z,7.18
2022-12-31T10:36:42.559Z,6.47
2022-12-31T10:40:07.749Z,7.05
2022-12-31T10:43:55.293Z,6.43
2022-12-31T10:47:22.101Z,6.50
2022-12-31T10:51:06.727Z,7.28
2022-12-31T10:54:24.797Z,6.75
2022-12-31T10:58:11.057Z,6.15
2022-12-31T11:01:41.196Z,6.87
2022-12-31T11:05:02.846Z,7.35
2022-12-31T11:08:17.544Z,7.55
2022-12-31T11:11:35.452Z,7.28
2022-12-31T11:14:58.115Z,7.47
2022-12-31T11:18:10.085Z,5.40
2022-12-31T11:22:02.473Z,6.22
2022-12-31T11:25:33.350Z,5.75
2022-12-31T11:29:07.060Z,5.20
2022-12-31T11:32:35.814Z,6.68
2022-12-31T11:36:20.219Z,6.20
2022-12-31T11:39:51.380Z,5.55
2022-12-31T11:42:54.636Z,6.20
2022-12-31T11:46:37.010Z,7.07
2022-12-31T11:49:54.776Z,7.13
2022-12-31T11:53:02.139Z,6.90
2022-12-31T11:56:18.478Z,6.57
2022-12-31T11:59:22.729Z,6.60
2022-12-31T12:02:34.068Z,6.38
2022-12-31T12:05:39.135Z,6.30
2022-12-31T12:08:44.207Z,5.87
2022-12-31T12:11:57.541Z,5.75
2022-12-31T12:15:06.683Z,8.68
2022-12-31T12:18:34.187Z,6.80
2022-12-31T12:21:49.297Z,6.60
2022-12-31T12:25:07.533Z,5.50
2022-12-31T12:28:23.686Z,5.68
2022-12-31T12:31:27.600Z,7.00
2022-12-31T12:34:33.596Z,5.93
2022-12-31T12:37:37.103Z,6.55
2022-12-31T12:40:41.697Z,6.43
2022-12-31T12:43:44.874Z,7.97
2022-12-31T12:46:50.033Z,6.22
2022-12-31T12:49:55.201Z,5.63
2022-12-31T12:53:23.111Z,6.47
2022-12-31T12:56:43.027Z,6.80
2022-12-31T12:59:46.319Z,6.63
2022-12-31T13:02:52.739Z,4.47
2022-12-31T13:06:22.720Z,6.53
2022-12-31T13:09:38.791Z,5.70
2022-12-31T13:16:45.491Z,6.18
2022-12-31T13:19:58.008Z,5.20
2022-12-31T13:23:14.875Z,5.15
2022-12-31T13:26:44.914Z,5.28
2022-12-31T13:29:49.344Z,6.07
2022-12-31T13:33:07.477Z,5.70
2022-12-31T13:36:39.680Z,5.85
2022-12-31T13:39:46.222Z,4.50
2022-12-31T13:43:01.253Z,5.57
2022-12-31T13:46:34.947Z,4.80
2022-12-31T13:49:52.399Z,5.43
2022-12-31T13:53:16.205Z,5.80
2022-12-31T13:56:25.705Z,6.60
2022-12-31T13:59:34.534Z,4.30
2022-12-31T14:02:56.781Z,4.77
2022-12-31T14:06:13.402Z,4.80
2022-12-31T14:09:31.282Z,4.93
2022-12-31T14:13:15.904Z,5.13
2022-12-31T14:16:19.048Z,5.28
2022-12-31T14:19:58.450Z,5.40
2022-12-31T14:23:36.670Z,5.30
2022-12-31T14:26:47.632Z,5.07
2022-12-31T14:30:06.255Z,4.65
2022-12-31T14:33:36.245Z,4.65
2022-12-31T14:37:07.664Z,5.47
2022-12-31T14:40:52.017Z,6.30
2022-12-31T14:44:06.970Z,4.93
2022-12-31T14:47:49.209Z,5.80
2022-12-31T14:50:58.046Z,4.60
2022-12-31T14:54:02.179Z,5.60
2022-12-31T14:57:17.619Z,5.63
2022-12-31T15:00:51.077Z,5.70
2022-12-31T15:03:57.811Z,5.47
2022-12-31T15:07:29.367Z,5.57
2022-12-31T15:10:35.344Z,6.57
2022-12-31T15:14:06.602Z,6.65
2022-12-31T15:17:27.815Z,7.00
2022-12-31T15:21:17.864Z,7.97
2022-12-31T15:24:27.359Z,6.85
2022-12-31T15:27:36.812Z,7.63
2022-12-31T15:30:48.557Z,6.78
2022-12-31T15:34:23.864Z,7.15
2022-12-31T15:37:35.863Z,9.13
2022-12-31T15:40:50.954Z,5.88
2022-12-31T15:44:21.981Z,9.50
2022-12-31T15:47:43.303Z,9.15
2022-12-31T15:50:48.416Z,10.13
2022-12-31T15:53:55.095Z,8.50
2022-12-31T15:57:00.244Z,9.30
2022-12-31T16:00:28.561Z,8.77
2022-12-31T16:03:32.192Z,11.07
2022-12-31T16:06:38.169Z,9.30
2022-12-31T16:09:41.685Z,8.20
2022-12-31T16:12:45.589Z,6.45
2022-12-31T16:16:00.239Z,8.07
2022-12-31T16:19:03.756Z,6.32
2022-12-31T16:22:17.179Z,6.43
2022-12-31T16:25:31.292Z,7.25
2022-12-31T16:28:35.707Z,7.65
2022-12-31T16:31:40.651Z,8.53
2022-12-31T16:34:44.004Z,7.88
2022-12-31T16:37:47.267Z,7.63
2022-12-31T16:41:02.455Z,7.68
2022-12-31T16:44:10.045Z,7.78
2022-12-31T16:47:20.820Z,8.40
2022-12-31T16:50:25.835Z,8.25
2022-12-31T16:53:32.577Z,7.85
2022-12-31T16:56:39.435Z,8.70
2022-12-31T16:59:46.717Z,8.85
2022-12-31T17:03:08.877Z,10.00
2022-12-31T17:06:23.016Z,9.95
2022-12-31T17:09:36.609Z,10.98
2022-12-31T17:13:25.546Z,10.32
2022-12-31T17:16:16.972Z,10.35
2022-12-31T17:19:37.593Z,11.33
2022-12-31T17:22:44.994Z,11.43
2022-12-31T17:25:48.315Z,12.95
2022-12-31T17:28:53.613Z,12.10
2022-12-31T17:32:00.983Z,12.70
2022-12-31T17:35:28.487Z,13.23
2022-12-31T17:38:33.258Z,12.32
2022-12-31T17:41:36.595Z,11.07
2022-12-31T17:44:43.587Z,10.88
2022-12-31T17:47:51.031Z,11.05
2022-12-31T17:50:57.570Z,10.33
2022-12-31T17:54:01.917Z,9.85
2022-12-31T17:57:05.413Z,9.63
2022-12-31T18:00:16.078Z,9.25
2022-12-31T18:03:19.349Z,9.93
2022-12-31T18:06:22.746Z,9.40
2022-12-31T18:09:26.035Z,10.13
2022-12-31T18:12:29.240Z,8.90
2022-12-31T18:15:32.558Z,9.70
2022-12-31T18:18:39.873Z,9.50
2022-12-31T18:21:45.054Z,9.73
2022-12-31T18:24:54.408Z,9.50
2022-12-31T18:27:57.634Z,9.88
2022-12-31T18:31:00.918Z,9.55
2022-12-31T18:34:04.330Z,10.00
2022-12-31T18:37:19.515Z,10.23
2022-12-31T18:40:26.674Z,10.63
2022-12-31T18:43:29.925Z,10.20
2022-12-31T18:46:33.193Z,9.35
2022-12-31T18:49:37.666Z,9.93
2022-12-31T18:52:41.169Z,10.00
2022-12-31T18:55:53.067Z,8.10
2022-12-31T18:58:56.398Z,7.55
2022-12-31T19:01:59.933Z,6.95
2022-12-31T19:05:15.233Z,11.90
2022-12-31T19:08:22.112Z,8.67
2022-12-31T19:11:25.225Z,7.43
2022-12-31T19:14:28.878Z,6.55
2022-12-31T19:17:32.002Z,7.40
2022-12-31T19:20:35.605Z,10.35
2022-12-31T19:23:38.786Z,10.37
2022-12-31T19:26:43.555Z,11.88
2022-12-31T19:29:46.893Z,8.48
2022-12-31T19:32:50.766Z,10.65
2022-12-31T19:35:54.170Z,12.40
2022-12-31T19:38:57.351Z,9.83
2022-12-31T19:42:00.721Z,11.15
2022-12-31T19:45:04.343Z,10.95
2022-12-31T19:48:12.467Z,13.52
2022-12-31T19:51:20.919Z,12.88
2022-12-31T19:54:24.094Z,12.30
2022-12-31T19:57:27.340Z,12.68
2022-12-31T20:00:32.557Z,8.45
2022-12-31T20:03:36.174Z,10.77
2022-12-31T20:06:39.323Z,11.95
2022-12-31T20:09:42.496Z,8.90
2022-12-31T20:12:45.668Z,10.07
2022-12-31T20:15:49.186Z,9.25
2022-12-31T20:18:52.790Z,12.13
2022-12-31T20:21:56.038Z,9.50
2022-12-31T20:24:59.211Z,10.70
2022-12-31T20:28:02.463Z,10.02
2022-12-31T20:31:07.265Z,9.02
2022-12-31T20:34:11.041Z,11.88
2022-12-31T20:37:14.303Z,12.63
2022-12-31T20:40:18.122Z,11.77
2022-12-31T20:43:21.319Z,12.30
2022-12-31T20:46:27.207Z,13.43
2022-12-31T20:50:00.787Z,12.38
2022-12-31T20:52:53.729Z,10.23
2022-12-31T20:55:56.951Z,11.87
2022-12-31T20:59:00.684Z,13.38
2022-12-31T21:05:27.289Z,14.38
2022-12-31T21:08:34.701Z,11.50
2022-12-31T21:11:57.362Z,10.77
2022-12-31T21:15:02.420Z,12.88
2022-12-31T21:18:05.822Z,11.05
2022-12-31T21:21:11.239Z,8.90
2022-12-31T21:24:20.217Z,9.90
2022-12-31T21:27:26.967Z,14.30
2022-12-31T21:30:30.347Z,13.75
2022-12-31T21:33:33.930Z,14.85
2022-12-31T21:36:37.112Z,14.10
2022-12-31T21:39:40.293Z,16.25
2022-12-31T21:42:43.511Z,12.77
2022-12-31T21:45:46.920Z,13.65
2022-12-31T21:48:55.745Z,13.52
2022-12-31T21:52:17.708Z,13.90
2022-12-31T21:55:39.271Z,14.80
2022-12-31T21:58:45.155Z,15.60
2022-12-31T22:02:07.547Z,15.82
2022-12-31T22:05:19.767Z,14.68
2022-12-31T22:08:27.950Z,13.43
2022-12-31T22:11:31.226Z,13.43
2022-12-31T22:14:35.288Z,13.77
2022-12-31T22:17:38.491Z,14.00
2022-12-31T22:20:42.098Z,15.52
2022-12-31T22:23:46.637Z,13.93
2022-12-31T22:26:50.941Z,15.68
2022-12-31T22:29:54.172Z,14.70
2022-12-31T22:32:57.700Z,17.75
2022-12-31T22:36:05.833Z,16.52
2022-12-31T22:39:44.142Z,14.75
2022-12-31T22:42:38.665Z,15.65
2022-12-31T22:45:41.914Z,16.10
2022-12-31T22:48:45.552Z,15.98
2022-12-31T22:51:58.709Z,16.25
2022-12-31T22:55:04.258Z,15.48
2022-12-31T22:58:07.438Z,16.38
2022-12-31T23:01:22.544Z,16.90
2022-12-31T23:04:25.834Z,17.27
2022-12-31T23:07:29.022Z,17.45
2022-12-31T23:10:51.107Z,17.67
2022-12-31T23:14:12.860Z,17.83
2022-12-31T23:17:41.392Z,17.10
2022-12-31T23:21:03.359Z,17.38
2022-12-31T23:24:11.294Z,17.25
2022-12-31T23:27:19.012Z,17.60
2022-12-31T23:30:22.299Z,17.92
2022-12-31T23:33:26.252Z,17.80
2022-12-31T23:36:29.737Z,17.27
2022-12-31T23:39:33.404Z,17.92
2022-12-31T23:42:36.671Z,17.98
2022-12-31T23:45:39.888Z,18.67
2022-12-31T23:48:43.857Z,18.57
2022-12-31T23:51:47.154Z,19.88
2022-12-31T23:54:50.364Z,18.02
2022-12-31T23:58:18.286Z,18.77
